createdAt,value
2023-05-05T00:00:23.205Z,100807.72
2023-05-05T00:05:25.400Z,100804.44
2023-05-05T00:10:26.889Z,100794.44
2023-05-05T00:15:28.354Z,100782.31
2023-05-05T00:20:29.794Z,100775.88
2023-05-05T00:25:31.423Z,100768.25
2023-05-05T00:30:34.296Z,100760.28
2023-05-05T00:35:35.853Z,100753.19
2023-05-05T00:40:38.198Z,100769.22
2023-05-05T00:45:42.824Z,100765.53
2023-05-05T00:50:45.037Z,100761.13
2023-05-05T00:55:46.588Z,100763.13
2023-05-05T01:00:48.592Z,100762.25
2023-05-05T01:06:15.312Z,100767.09
2023-05-05T01:11:27.093Z,100765.19
2023-05-05T01:16:31.870Z,100766.09
2023-05-05T01:22:06.683Z,100756.63
2023-05-05T01:27:29.810Z,100762.63
2023-05-05T01:32:37.702Z,100758.69
2023-05-05T01:37:54.786Z,100754.06
2023-05-05T01:42:57.176Z,100752.53
2023-05-05T01:48:01.332Z,100751.25
2023-05-05T01:53:04.824Z,100754.38
2023-05-05T01:58:07.657Z,100744.41
2023-05-05T02:03:12.352Z,100735.25
2023-05-05T02:08:15.788Z,100733.81
2023-05-05T02:13:18.690Z,100733.25
2023-05-05T02:18:22.957Z,100723.66
2023-05-05T02:23:25.727Z,100727.78
2023-05-05T02:28:42.235Z,100725.38
2023-05-05T02:33:46.867Z,100724.81
2023-05-05T02:38:53.026Z,100736.66
2023-05-05T02:43:56.530Z,100741.47
2023-05-05T02:48:59.724Z,100749.75
2023-05-05T02:54:01.855Z,100741.44
2023-05-05T02:59:14.434Z,100744.00
2023-05-05T03:04:42.677Z,100744.09
2023-05-05T03:09:53.420Z,100740.47
2023-05-05T03:14:58.429Z,100736.63
2023-05-05T03:20:04.004Z,100742.84
2023-05-05T03:25:08.389Z,100740.56
2023-05-05T03:30:10.640Z,100731.81
2023-05-05T03:35:19.816Z,100730.97
2023-05-05T03:40:29.897Z,100734.09
2023-05-05T03:45:38.843Z,100747.03
2023-05-05T03:50:40.780Z,100746.75
2023-05-05T03:55:43.021Z,100750.66
2023-05-05T04:00:46.098Z,100749.41
2023-05-05T04:05:48.683Z,100742.50
2023-05-05T04:10:51.114Z,100741.50
2023-05-05T04:15:53.076Z,100749.81
2023-05-05T04:20:54.781Z,100746.19
2023-05-05T04:25:57.617Z,100746.19
2023-05-05T04:31:02.530Z,100755.34
2023-05-05T04:36:05.998Z,100755.50
2023-05-05T04:41:07.630Z,100764.31
2023-05-05T04:46:10.975Z,100768.16
2023-05-05T04:51:13.293Z,100768.09
2023-05-05T04:56:15.692Z,100775.47
2023-05-05T05:01:17.341Z,100774.34
2023-05-05T05:06:18.743Z,100774.28
2023-05-05T05:11:20.223Z,100777.16
2023-05-05T05:16:21.894Z,100777.34
2023-05-05T05:21:23.603Z,100784.56
2023-05-05T05:26:25.834Z,100786.81
2023-05-05T05:31:27.452Z,100783.72
2023-05-05T05:36:29.833Z,100780.16
2023-05-05T05:41:31.204Z,100776.91
2023-05-05T05:46:32.741Z,100775.94
2023-05-05T05:51:34.186Z,100778.66
2023-05-05T05:56:36.640Z,100783.56
2023-05-05T06:01:38.336Z,100788.06
2023-05-05T06:06:39.964Z,100772.31
2023-05-05T06:11:41.385Z,100771.44
2023-05-05T06:16:42.945Z,100775.38
2023-05-05T06:21:48.282Z,100766.47
2023-05-05T06:26:50.303Z,100770.88
2023-05-05T06:31:51.969Z,100761.88
2023-05-05T06:36:53.632Z,100763.16
2023-05-05T06:41:55.172Z,100760.75
2023-05-05T06:46:57.222Z,100755.91
2023-05-05T06:51:58.724Z,100754.03
2023-05-05T06:57:00.244Z,100748.72
2023-05-05T07:02:01.839Z,100747.78
2023-05-05T07:07:03.338Z,100741.69
2023-05-05T07:12:04.980Z,100741.66
2023-05-05T07:17:06.493Z,100739.91
2023-05-05T07:22:08.051Z,100741.41
2023-05-05T07:27:09.689Z,100745.97
2023-05-05T07:32:11.267Z,100736.44
2023-05-05T07:37:12.813Z,100745.31
2023-05-05T07:42:14.846Z,100743.09
2023-05-05T07:47:16.402Z,100740.06
2023-05-05T07:52:17.909Z,100738.56
2023-05-05T07:57:20.328Z,100748.38
2023-05-05T08:38:50.572Z,100717.03
2023-05-05T08:49:46.290Z,100698.56
2023-05-05T08:54:57.130Z,100709.22
2023-05-05T09:00:00.198Z,100702.28
2023-05-05T09:05:05.219Z,100700.97
2023-05-05T09:10:10.122Z,100690.31
2023-05-05T09:15:14.147Z,100691.06
2023-05-05T09:20:15.696Z,100691.91
2023-05-05T09:25:18.363Z,100683.06
2023-05-05T09:30:27.113Z,100692.06
2023-05-05T09:35:28.823Z,100688.19
2023-05-05T09:40:45.389Z,100684.91
2023-05-05T09:45:49.026Z,100673.53
2023-05-05T09:50:50.648Z,100665.22
2023-05-05T09:56:00.961Z,100670.91
2023-05-05T10:01:02.469Z,100672.41
2023-05-05T10:06:04.662Z,100656.63
2023-05-05T10:11:07.002Z,100647.66
2023-05-05T10:16:09.608Z,100652.88
2023-05-05T10:21:13.850Z,100638.34
2023-05-05T10:26:17.020Z,100644.06
2023-05-05T10:31:41.161Z,100631.75
2023-05-05T10:36:44.963Z,100627.09
2023-05-05T10:41:47.575Z,100627.69
2023-05-05T10:46:49.320Z,100628.72
2023-05-05T10:52:17.471Z,100629.19
2023-05-05T10:57:29.750Z,100611.78
2023-05-05T11:02:31.410Z,100612.13
2023-05-05T11:07:34.387Z,100610.91
2023-05-05T11:12:59.305Z,100606.31
2023-05-05T11:18:04.835Z,100598.38
2023-05-05T11:23:08.558Z,100592.59
2023-05-05T11:28:12.308Z,100593.16
2023-05-05T11:33:26.847Z,100582.88
2023-05-05T11:38:53.046Z,100572.59
2023-05-05T11:44:13.891Z,100563.13
2023-05-05T11:49:26.494Z,100566.59
2023-05-05T11:54:54.092Z,100555.31
2023-05-05T11:59:58.873Z,100552.47
2023-05-05T12:05:00.977Z,100551.72
2023-05-05T12:10:02.708Z,100543.53
2023-05-05T12:15:05.037Z,100540.66
2023-05-05T12:20:07.540Z,100542.88
2023-05-05T12:25:09.602Z,100536.66
2023-05-05T12:30:16.971Z,100531.44
2023-05-05T12:35:19.773Z,100532.06
2023-05-05T12:40:51.799Z,100524.06
2023-05-05T12:46:11.890Z,100526.44
2023-05-05T12:51:20.733Z,100515.38
2023-05-05T12:56:29.740Z,100522.06
2023-05-05T13:01:31.765Z,100518.59
2023-05-05T13:06:33.397Z,100512.25
2023-05-05T13:11:37.876Z,100510.59
2023-05-05T13:16:39.321Z,100492.56
2023-05-05T13:21:41.648Z,100498.72
2023-05-05T13:26:43.085Z,100483.31
2023-05-05T13:31:45.512Z,100493.22
2023-05-05T13:36:47.024Z,100476.53
2023-05-05T13:41:48.522Z,100468.38
2023-05-05T13:46:50.037Z,100462.97
2023-05-05T13:51:51.603Z,100464.75
2023-05-05T13:56:53.227Z,100451.69
2023-05-05T14:01:54.725Z,100446.69
2023-05-05T14:06:58.232Z,100443.59
2023-05-05T14:11:59.725Z,100432.94
2023-05-05T14:17:01.364Z,100430.88
2023-05-05T14:22:03.154Z,100428.63
2023-05-05T14:27:04.710Z,100427.69
2023-05-05T14:32:06.182Z,100423.22
2023-05-05T14:37:07.713Z,100422.47
2023-05-05T14:42:09.343Z,100423.13
2023-05-05T14:47:10.858Z,100416.00
2023-05-05T14:52:12.300Z,100413.09
2023-05-05T14:57:13.779Z,100412.38
2023-05-05T15:02:15.884Z,100409.16
2023-05-05T15:07:17.335Z,100409.06
2023-05-05T15:12:18.787Z,100403.44
2023-05-05T15:17:20.331Z,100396.00
2023-05-05T15:22:21.791Z,100387.13
2023-05-05T15:27:23.390Z,100395.59
2023-05-05T15:32:24.950Z,100395.53
2023-05-05T15:37:28.799Z,100392.34
2023-05-05T15:42:32.643Z,100389.41
2023-05-05T15:47:36.010Z,100385.16
2023-05-05T15:52:37.587Z,100384.13
2023-05-05T15:57:42.006Z,100378.88
2023-05-05T16:02:43.567Z,100375.09
2023-05-05T16:07:45.112Z,100383.22
2023-05-05T16:12:46.582Z,100375.38
2023-05-05T16:17:48.073Z,100380.47
2023-05-05T16:22:49.529Z,100372.97
2023-05-05T16:27:50.983Z,100383.78
2023-05-05T16:32:58.830Z,100362.53
2023-05-05T16:38:00.743Z,100366.00
2023-05-05T16:43:02.167Z,100372.47
2023-05-05T16:48:04.009Z,100365.09
2023-05-05T16:53:06.451Z,100366.56
2023-05-05T16:58:08.013Z,100363.28
2023-05-05T17:03:09.473Z,100364.84
2023-05-05T17:08:14.483Z,100357.28
2023-05-05T17:13:16.061Z,100356.78
2023-05-05T17:18:20.110Z,100359.63
2023-05-05T17:23:21.566Z,100347.06
2023-05-05T17:28:23.013Z,100346.41
2023-05-05T17:33:24.461Z,100345.22
2023-05-05T17:38:25.914Z,100345.31
2023-05-05T17:43:27.367Z,100347.94
2023-05-05T17:48:28.856Z,100348.19
2023-05-05T17:53:30.327Z,100341.16
2023-05-05T17:58:31.774Z,100344.06
2023-05-05T18:03:33.328Z,100348.16
2023-05-05T18:08:34.829Z,100354.31
2023-05-05T18:13:36.657Z,100351.19
2023-05-05T18:18:40.233Z,100360.75
2023-05-05T18:23:41.839Z,100376.50
2023-05-05T18:28:43.294Z,100383.09
2023-05-05T18:33:46.879Z,100380.69
2023-05-05T18:38:49.283Z,100379.59
2023-05-05T18:43:50.718Z,100388.28
2023-05-05T18:48:52.178Z,100391.63
2023-05-05T18:53:53.745Z,100394.03
2023-05-05T18:58:55.578Z,100397.25
2023-05-05T19:03:57.057Z,100406.78
2023-05-05T19:08:58.532Z,100408.38
2023-05-05T19:13:59.978Z,100409.47
2023-05-05T19:19:01.449Z,100401.03
2023-05-05T19:24:03.002Z,100403.16
2023-05-05T19:29:04.629Z,100407.63
2023-05-05T19:34:06.333Z,100419.44
2023-05-05T19:39:08.113Z,100407.94
2023-05-05T19:44:09.573Z,100402.44
2023-05-05T19:49:11.191Z,100401.91
2023-05-05T19:54:12.736Z,100392.09
2023-05-05T19:59:14.226Z,100386.81
2023-05-05T20:04:15.686Z,100386.03
2023-05-05T20:09:17.422Z,100385.75
2023-05-05T20:14:18.876Z,100384.97
2023-05-05T20:19:20.342Z,100390.13
2023-05-05T20:24:21.811Z,100387.22
2023-05-05T20:29:23.297Z,100387.13
2023-05-05T20:34:25.205Z,100385.28
2023-05-05T20:39:26.763Z,100383.94
2023-05-05T20:44:28.220Z,100389.97
2023-05-05T20:49:30.372Z,100388.03
2023-05-05T20:54:35.057Z,100388.50
2023-05-05T20:59:37.692Z,100383.81
2023-05-05T21:04:39.138Z,100379.31
2023-05-05T21:09:40.826Z,100382.84
2023-05-05T21:14:48.090Z,100393.59
2023-05-05T21:19:49.540Z,100381.59
2023-05-05T21:24:51.186Z,100372.81
2023-05-05T21:29:52.649Z,100358.59
2023-05-05T21:34:54.090Z,100350.44
2023-05-05T21:39:55.533Z,100352.97
2023-05-05T21:44:56.968Z,100357.34
2023-05-05T21:49:58.959Z,100347.75
2023-05-05T21:55:00.441Z,100350.03
2023-05-05T22:00:02.463Z,100356.72
2023-05-05T22:05:13.953Z,100369.72
2023-05-05T22:10:15.398Z,100371.03
2023-05-05T22:15:19.854Z,100383.06
2023-05-05T22:20:21.672Z,100398.13
2023-05-05T22:25:23.129Z,100410.84
2023-05-05T22:30:24.564Z,100424.06
2023-05-05T22:35:26.054Z,100440.81
2023-05-05T22:40:28.635Z,100451.84
2023-05-05T22:45:32.409Z,100453.19
2023-05-05T22:50:35.187Z,100447.88
2023-05-05T22:55:36.633Z,100449.34
2023-05-05T23:00:38.481Z,100453.66
2023-05-05T23:05:39.921Z,100451.38
2023-05-05T23:10:41.417Z,100441.41
2023-05-05T23:15:43.574Z,100430.50
2023-05-05T23:20:45.013Z,100429.09
2023-05-05T23:25:46.669Z,100432.25
2023-05-05T23:30:48.180Z,100420.09
2023-05-05T23:35:51.299Z,100419.84
2023-05-05T23:40:53.544Z,100414.19
2023-05-05T23:45:55.015Z,100411.19
2023-05-05T23:50:56.668Z,100408.63
2023-05-05T23:55:58.546Z,100404.63
